sensor_id;sensor_type;location;lat;lon;timestamp;P1;durP1;ratioP1;P2;durP2;ratioP2
65156;SDS011;52745;49.794;18.258;2022-09-17T00:00:45;6.18;;;3.40;;
65156;SDS011;52745;49.794;18.258;2022-09-17T00:03:26;4.45;;;3.10;;
65156;SDS011;52745;49.794;18.258;2022-09-17T00:06:00;6.55;;;3.15;;
65156;SDS011;52745;49.794;18.258;2022-09-17T00:08:28;6.75;;;3.33;;
65156;SDS011;52745;49.794;18.258;2022-09-17T00:10:57;6.03;;;3.28;;
65156;SDS011;52745;49.794;18.258;2022-09-17T00:13:23;9.98;;;3.05;;
65156;SDS011;52745;49.794;18.258;2022-09-17T00:15:50;5.82;;;2.85;;
65156;SDS011;52745;49.794;18.258;2022-09-17T00:18:17;3.97;;;2.85;;
65156;SDS011;52745;49.794;18.258;2022-09-17T00:20:44;6.45;;;3.20;;
65156;SDS011;52745;49.794;18.258;2022-09-17T00:23:12;4.95;;;3.03;;
65156;SDS011;52745;49.794;18.258;2022-09-17T00:25:40;5.20;;;3.28;;
65156;SDS011;52745;49.794;18.258;2022-09-17T00:28:08;4.00;;;2.72;;
65156;SDS011;52745;49.794;18.258;2022-09-17T00:30:38;4.25;;;2.90;;
65156;SDS011;52745;49.794;18.258;2022-09-17T00:33:06;4.88;;;2.70;;
65156;SDS011;52745;49.794;18.258;2022-09-17T00:35:33;4.88;;;2.75;;
65156;SDS011;52745;49.794;18.258;2022-09-17T00:37:59;5.07;;;2.90;;
65156;SDS011;52745;49.794;18.258;2022-09-17T00:40:26;5.32;;;3.35;;
65156;SDS011;52745;49.794;18.258;2022-09-17T00:42:52;3.70;;;2.67;;
65156;SDS011;52745;49.794;18.258;2022-09-17T00:45:19;4.55;;;3.28;;
65156;SDS011;52745;49.794;18.258;2022-09-17T00:47:59;2.90;;;2.40;;
65156;SDS011;52745;49.794;18.258;2022-09-17T00:53:00;3.80;;;2.58;;
65156;SDS011;52745;49.794;18.258;2022-09-17T00:55:31;6.75;;;3.55;;
65156;SDS011;52745;49.794;18.258;2022-09-17T00:58:02;5.00;;;3.33;;
65156;SDS011;52745;49.794;18.258;2022-09-17T01:00:32;4.80;;;3.25;;
65156;SDS011;52745;49.794;18.258;2022-09-17T01:02:58;4.35;;;3.00;;
65156;SDS011;52745;49.794;18.258;2022-09-17T01:05:34;4.78;;;3.40;;
65156;SDS011;52745;49.794;18.258;2022-09-17T01:08:12;8.27;;;4.53;;
65156;SDS011;52745;49.794;18.258;2022-09-17T01:10:54;5.63;;;3.33;;
65156;SDS011;52745;49.794;18.258;2022-09-17T01:21:38;3.75;;;2.92;;
65156;SDS011;52745;49.794;18.258;2022-09-17T01:24:29;4.72;;;2.95;;
65156;SDS011;52745;49.794;18.258;2022-09-17T01:32:47;3.15;;;2.72;;
65156;SDS011;52745;49.794;18.258;2022-09-17T01:35:32;4.95;;;2.78;;
65156;SDS011;52745;49.794;18.258;2022-09-17T01:41:20;3.50;;;2.85;;
65156;SDS011;52745;49.794;18.258;2022-09-17T01:44:22;4.50;;;2.80;;
65156;SDS011;52745;49.794;18.258;2022-09-17T01:47:09;3.58;;;2.60;;
65156;SDS011;52745;49.794;18.258;2022-09-17T01:49:41;4.55;;;2.55;;
65156;SDS011;52745;49.794;18.258;2022-09-17T01:52:08;3.47;;;2.63;;
65156;SDS011;52745;49.794;18.258;2022-09-17T01:54:42;3.70;;;2.70;;
65156;SDS011;52745;49.794;18.258;2022-09-17T01:57:18;5.22;;;2.72;;
65156;SDS011;52745;49.794;18.258;2022-09-17T01:59:54;5.18;;;2.80;;
65156;SDS011;52745;49.794;18.258;2022-09-17T02:05:00;5.47;;;3.03;;
65156;SDS011;52745;49.794;18.258;2022-09-17T02:07:30;5.60;;;3.40;;
65156;SDS011;52745;49.794;18.258;2022-09-17T02:10:06;5.50;;;3.17;;
65156;SDS011;52745;49.794;18.258;2022-09-17T02:12:40;4.15;;;2.97;;
65156;SDS011;52745;49.794;18.258;2022-09-17T02:15:13;4.30;;;2.83;;
65156;SDS011;52745;49.794;18.258;2022-09-17T02:20:42;3.90;;;2.78;;
65156;SDS011;52745;49.794;18.258;2022-09-17T02:23:15;7.38;;;3.40;;
65156;SDS011;52745;49.794;18.258;2022-09-17T02:25:53;3.72;;;2.90;;
65156;SDS011;52745;49.794;18.258;2022-09-17T02:28:31;3.63;;;2.80;;
65156;SDS011;52745;49.794;18.258;2022-09-17T02:31:21;5.40;;;3.33;;
65156;SDS011;52745;49.794;18.258;2022-09-17T02:33:49;5.07;;;3.45;;
65156;SDS011;52745;49.794;18.258;2022-09-17T02:36:19;4.95;;;3.65;;
65156;SDS011;52745;49.794;18.258;2022-09-17T02:38:45;5.50;;;3.80;;
65156;SDS011;52745;49.794;18.258;2022-09-17T02:41:16;5.78;;;3.47;;
65156;SDS011;52745;49.794;18.258;2022-09-17T02:46:48;5.68;;;3.35;;
65156;SDS011;52745;49.794;18.258;2022-09-17T02:57:35;5.45;;;3.67;;
65156;SDS011;52745;49.794;18.258;2022-09-17T03:00:11;6.45;;;3.83;;
65156;SDS011;52745;49.794;18.258;2022-09-17T03:02:45;6.53;;;3.65;;
65156;SDS011;52745;49.794;18.258;2022-09-17T03:07:45;4.45;;;3.33;;
65156;SDS011;52745;49.794;18.258;2022-09-17T03:10:12;6.68;;;4.03;;
65156;SDS011;52745;49.794;18.258;2022-09-17T03:12:39;7.60;;;3.78;;
65156;SDS011;52745;49.794;18.258;2022-09-17T03:15:06;6.85;;;3.67;;
65156;SDS011;52745;49.794;18.258;2022-09-17T03:17:34;8.00;;;3.50;;
65156;SDS011;52745;49.794;18.258;2022-09-17T03:20:00;7.30;;;3.60;;
65156;SDS011;52745;49.794;18.258;2022-09-17T03:22:27;6.93;;;3.75;;
65156;SDS011;52745;49.794;18.258;2022-09-17T03:24:54;5.60;;;3.22;;
65156;SDS011;52745;49.794;18.258;2022-09-17T03:27:20;5.78;;;3.47;;
65156;SDS011;52745;49.794;18.258;2022-09-17T03:29:47;6.40;;;3.70;;
65156;SDS011;52745;49.794;18.258;2022-09-17T03:32:13;4.60;;;3.38;;
65156;SDS011;52745;49.794;18.258;2022-09-17T03:34:39;6.18;;;3.47;;
65156;SDS011;52745;49.794;18.258;2022-09-17T03:37:06;4.55;;;3.42;;
65156;SDS011;52745;49.794;18.258;2022-09-17T03:39:32;4.43;;;3.50;;
65156;SDS011;52745;49.794;18.258;2022-09-17T03:41:59;6.82;;;3.47;;
65156;SDS011;52745;49.794;18.258;2022-09-17T03:44:28;4.57;;;2.92;;
65156;SDS011;52745;49.794;18.258;2022-09-17T03:46:54;5.55;;;3.25;;
65156;SDS011;52745;49.794;18.258;2022-09-17T03:49:21;6.78;;;3.30;;
65156;SDS011;52745;49.794;18.258;2022-09-17T03:51:49;7.07;;;2.97;;
65156;SDS011;52745;49.794;18.258;2022-09-17T03:54:15;4.93;;;3.22;;
65156;SDS011;52745;49.794;18.258;2022-09-17T03:56:42;4.68;;;2.90;;
65156;SDS011;52745;49.794;18.258;2022-09-17T03:59:09;4.57;;;2.88;;
65156;SDS011;52745;49.794;18.258;2022-09-17T04:01:35;5.68;;;2.80;;
65156;SDS011;52745;49.794;18.258;2022-09-17T04:04:02;5.25;;;2.97;;
65156;SDS011;52745;49.794;18.258;2022-09-17T04:06:29;6.53;;;2.90;;
65156;SDS011;52745;49.794;18.258;2022-09-17T04:08:55;4.57;;;2.97;;
65156;SDS011;52745;49.794;18.258;2022-09-17T04:11:22;6.68;;;3.53;;
65156;SDS011;52745;49.794;18.258;2022-09-17T04:13:48;4.82;;;3.10;;
65156;SDS011;52745;49.794;18.258;2022-09-17T04:16:15;4.57;;;3.28;;
65156;SDS011;52745;49.794;18.258;2022-09-17T04:18:41;4.90;;;3.25;;
65156;SDS011;52745;49.794;18.258;2022-09-17T04:21:08;4.07;;;2.97;;
65156;SDS011;52745;49.794;18.258;2022-09-17T04:23:34;4.35;;;2.67;;
65156;SDS011;52745;49.794;18.258;2022-09-17T04:26:01;5.07;;;2.95;;
65156;SDS011;52745;49.794;18.258;2022-09-17T04:28:27;3.92;;;2.80;;
65156;SDS011;52745;49.794;18.258;2022-09-17T04:30:54;4.05;;;2.50;;
65156;SDS011;52745;49.794;18.258;2022-09-17T04:33:20;6.28;;;3.15;;
65156;SDS011;52745;49.794;18.258;2022-09-17T04:35:47;6.07;;;2.90;;
65156;SDS011;52745;49.794;18.258;2022-09-17T04:38:14;9.65;;;3.10;;
65156;SDS011;52745;49.794;18.258;2022-09-17T04:40:43;4.60;;;2.97;;
65156;SDS011;52745;49.794;18.258;2022-09-17T04:43:11;4.68;;;2.85;;
65156;SDS011;52745;49.794;18.258;2022-09-17T04:45:38;4.47;;;3.10;;
65156;SDS011;52745;49.794;18.258;2022-09-17T04:48:04;4.50;;;2.95;;
65156;SDS011;52745;49.794;18.258;2022-09-17T04:50:31;4.35;;;2.95;;
65156;SDS011;52745;49.794;18.258;2022-09-17T04:52:57;4.32;;;2.88;;
65156;SDS011;52745;49.794;18.258;2022-09-17T04:55:24;4.68;;;2.72;;
65156;SDS011;52745;49.794;18.258;2022-09-17T04:57:51;3.35;;;2.67;;
65156;SDS011;52745;49.794;18.258;2022-09-17T05:00:19;3.80;;;2.97;;
65156;SDS011;52745;49.794;18.258;2022-09-17T05:02:48;4.93;;;2.50;;
65156;SDS011;52745;49.794;18.258;2022-09-17T05:05:16;3.92;;;2.38;;
65156;SDS011;52745;49.794;18.258;2022-09-17T05:07:44;4.15;;;2.33;;
65156;SDS011;52745;49.794;18.258;2022-09-17T05:10:10;3.58;;;2.42;;
65156;SDS011;52745;49.794;18.258;2022-09-17T05:12:39;3.88;;;2.30;;
65156;SDS011;52745;49.794;18.258;2022-09-17T05:15:05;5.25;;;2.30;;
65156;SDS011;52745;49.794;18.258;2022-09-17T05:17:32;2.90;;;2.30;;
65156;SDS011;52745;49.794;18.258;2022-09-17T05:19:58;3.85;;;2.10;;
65156;SDS011;52745;49.794;18.258;2022-09-17T05:22:25;3.67;;;2.45;;
65156;SDS011;52745;49.794;18.258;2022-09-17T05:24:51;8.25;;;2.90;;
65156;SDS011;52745;49.794;18.258;2022-09-17T05:27:19;3.13;;;2.45;;
65156;SDS011;52745;49.794;18.258;2022-09-17T05:29:45;3.42;;;2.35;;
65156;SDS011;52745;49.794;18.258;2022-09-17T05:32:11;4.55;;;2.60;;
65156;SDS011;52745;49.794;18.258;2022-09-17T05:34:38;3.05;;;2.40;;
65156;SDS011;52745;49.794;18.258;2022-09-17T05:37:05;4.10;;;2.50;;
65156;SDS011;52745;49.794;18.258;2022-09-17T05:39:31;4.15;;;2.22;;
65156;SDS011;52745;49.794;18.258;2022-09-17T05:41:58;7.53;;;2.70;;
65156;SDS011;52745;49.794;18.258;2022-09-17T05:44:24;4.35;;;2.28;;
65156;SDS011;52745;49.794;18.258;2022-09-17T05:46:51;4.90;;;2.55;;
65156;SDS011;52745;49.794;18.258;2022-09-17T05:49:18;4.40;;;2.50;;
65156;SDS011;52745;49.794;18.258;2022-09-17T05:51:45;12.65;;;2.65;;
65156;SDS011;52745;49.794;18.258;2022-09-17T05:54:11;4.00;;;2.42;;
65156;SDS011;52745;49.794;18.258;2022-09-17T05:56:37;3.40;;;2.28;;
65156;SDS011;52745;49.794;18.258;2022-09-17T05:59:04;4.80;;;3.08;;
65156;SDS011;52745;49.794;18.258;2022-09-17T06:01:30;3.25;;;2.35;;
65156;SDS011;52745;49.794;18.258;2022-09-17T06:03:57;3.78;;;2.22;;
65156;SDS011;52745;49.794;18.258;2022-09-17T06:06:23;5.95;;;2.50;;
65156;SDS011;52745;49.794;18.258;2022-09-17T06:08:50;5.30;;;2.50;;
65156;SDS011;52745;49.794;18.258;2022-09-17T06:11:16;3.33;;;2.42;;
65156;SDS011;52745;49.794;18.258;2022-09-17T06:13:43;7.28;;;2.53;;
65156;SDS011;52745;49.794;18.258;2022-09-17T06:16:09;5.22;;;2.47;;
65156;SDS011;52745;49.794;18.258;2022-09-17T06:18:35;4.10;;;2.40;;
65156;SDS011;52745;49.794;18.258;2022-09-17T06:21:02;2.10;;;1.80;;
65156;SDS011;52745;49.794;18.258;2022-09-17T06:23:30;3.20;;;2.50;;
65156;SDS011;52745;49.794;18.258;2022-09-17T06:26:00;4.40;;;3.05;;
65156;SDS011;52745;49.794;18.258;2022-09-17T06:28:28;7.93;;;4.60;;
65156;SDS011;52745;49.794;18.258;2022-09-17T06:30:58;7.38;;;2.90;;
65156;SDS011;52745;49.794;18.258;2022-09-17T06:33:30;6.53;;;2.55;;
65156;SDS011;52745;49.794;18.258;2022-09-17T06:36:02;4.20;;;2.53;;
65156;SDS011;52745;49.794;18.258;2022-09-17T06:38:41;3.85;;;2.13;;
65156;SDS011;52745;49.794;18.258;2022-09-17T06:41:08;2.67;;;2.10;;
65156;SDS011;52745;49.794;18.258;2022-09-17T06:43:35;3.55;;;2.30;;
65156;SDS011;52745;49.794;18.258;2022-09-17T06:46:02;2.67;;;2.03;;
65156;SDS011;52745;49.794;18.258;2022-09-17T06:48:34;10.15;;;6.68;;
65156;SDS011;52745;49.794;18.258;2022-09-17T06:51:03;3.95;;;2.75;;
65156;SDS011;52745;49.794;18.258;2022-09-17T06:53:31;4.32;;;2.28;;
65156;SDS011;52745;49.794;18.258;2022-09-17T06:55:58;2.85;;;2.30;;
65156;SDS011;52745;49.794;18.258;2022-09-17T06:58:27;4.63;;;2.38;;
65156;SDS011;52745;49.794;18.258;2022-09-17T07:00:58;3.28;;;2.25;;
65156;SDS011;52745;49.794;18.258;2022-09-17T07:03:29;3.92;;;2.60;;
65156;SDS011;52745;49.794;18.258;2022-09-17T07:05:56;3.60;;;2.53;;
65156;SDS011;52745;49.794;18.258;2022-09-17T07:08:23;4.75;;;2.63;;
65156;SDS011;52745;49.794;18.258;2022-09-17T07:10:54;4.70;;;2.47;;
65156;SDS011;52745;49.794;18.258;2022-09-17T07:13:21;3.35;;;2.33;;
65156;SDS011;52745;49.794;18.258;2022-09-17T07:15:55;3.17;;;2.60;;
65156;SDS011;52745;49.794;18.258;2022-09-17T07:18:24;4.03;;;2.22;;
65156;SDS011;52745;49.794;18.258;2022-09-17T07:20:52;5.03;;;2.38;;
65156;SDS011;52745;49.794;18.258;2022-09-17T07:23:23;4.15;;;2.15;;
65156;SDS011;52745;49.794;18.258;2022-09-17T07:25:54;6.72;;;2.63;;
65156;SDS011;52745;49.794;18.258;2022-09-17T07:28:21;5.63;;;2.40;;
65156;SDS011;52745;49.794;18.258;2022-09-17T07:30:50;4.07;;;2.85;;
65156;SDS011;52745;49.794;18.258;2022-09-17T07:33:18;3.97;;;2.30;;
65156;SDS011;52745;49.794;18.258;2022-09-17T07:35:55;7.05;;;2.67;;
65156;SDS011;52745;49.794;18.258;2022-09-17T07:43:20;3.65;;;2.10;;
65156;SDS011;52745;49.794;18.258;2022-09-17T07:45:46;4.05;;;2.42;;
65156;SDS011;52745;49.794;18.258;2022-09-17T07:48:13;3.38;;;2.05;;
65156;SDS011;52745;49.794;18.258;2022-09-17T07:50:39;5.57;;;2.63;;
65156;SDS011;52745;49.794;18.258;2022-09-17T07:53:06;3.65;;;2.45;;
65156;SDS011;52745;49.794;18.258;2022-09-17T07:55:32;4.80;;;2.40;;
65156;SDS011;52745;49.794;18.258;2022-09-17T07:57:58;5.35;;;2.55;;
65156;SDS011;52745;49.794;18.258;2022-09-17T08:00:25;3.63;;;2.33;;
65156;SDS011;52745;49.794;18.258;2022-09-17T08:02:52;2.60;;;2.33;;
65156;SDS011;52745;49.794;18.258;2022-09-17T08:05:22;3.50;;;2.13;;
65156;SDS011;52745;49.794;18.258;2022-09-17T08:07:50;4.80;;;2.67;;
65156;SDS011;52745;49.794;18.258;2022-09-17T08:10:17;5.28;;;2.25;;
65156;SDS011;52745;49.794;18.258;2022-09-17T08:12:48;4.85;;;2.30;;
65156;SDS011;52745;49.794;18.258;2022-09-17T08:15:15;3.42;;;2.20;;
65156;SDS011;52745;49.794;18.258;2022-09-17T08:17:45;4.97;;;2.22;;
65156;SDS011;52745;49.794;18.258;2022-09-17T08:20:13;4.47;;;2.00;;
65156;SDS011;52745;49.794;18.258;2022-09-17T08:22:41;3.13;;;2.25;;
65156;SDS011;52745;49.794;18.258;2022-09-17T08:25:08;4.95;;;2.30;;
65156;SDS011;52745;49.794;18.258;2022-09-17T08:27:36;4.18;;;2.05;;
65156;SDS011;52745;49.794;18.258;2022-09-17T08:30:06;4.55;;;2.20;;
65156;SDS011;52745;49.794;18.258;2022-09-17T08:32:32;4.15;;;2.00;;
65156;SDS011;52745;49.794;18.258;2022-09-17T08:34:59;4.30;;;1.88;;
65156;SDS011;52745;49.794;18.258;2022-09-17T08:37:27;4.47;;;2.40;;
65156;SDS011;52745;49.794;18.258;2022-09-17T08:39:55;4.85;;;2.08;;
65156;SDS011;52745;49.794;18.258;2022-09-17T08:42:30;7.43;;;2.40;;
65156;SDS011;52745;49.794;18.258;2022-09-17T08:45:03;4.47;;;2.30;;
65156;SDS011;52745;49.794;18.258;2022-09-17T08:47:38;5.75;;;2.70;;
65156;SDS011;52745;49.794;18.258;2022-09-17T08:50:16;4.47;;;2.23;;
65156;SDS011;52745;49.794;18.258;2022-09-17T08:55:37;3.97;;;1.88;;
65156;SDS011;52745;49.794;18.258;2022-09-17T08:58:17;2.85;;;1.60;;
65156;SDS011;52745;49.794;18.258;2022-09-17T09:03:54;2.97;;;1.90;;
65156;SDS011;52745;49.794;18.258;2022-09-17T09:06:43;3.10;;;1.73;;
65156;SDS011;52745;49.794;18.258;2022-09-17T09:09:13;3.97;;;2.20;;
65156;SDS011;52745;49.794;18.258;2022-09-17T09:11:42;3.63;;;2.00;;
65156;SDS011;52745;49.794;18.258;2022-09-17T09:14:14;4.00;;;1.80;;
65156;SDS011;52745;49.794;18.258;2022-09-17T09:16:43;3.28;;;1.90;;
65156;SDS011;52745;49.794;18.258;2022-09-17T09:22:01;5.32;;;2.05;;
65156;SDS011;52745;49.794;18.258;2022-09-17T09:27:15;4.28;;;2.00;;
65156;SDS011;52745;49.794;18.258;2022-09-17T09:38:00;5.15;;;2.00;;
65156;SDS011;52745;49.794;18.258;2022-09-17T09:43:24;5.13;;;1.80;;
65156;SDS011;52745;49.794;18.258;2022-09-17T09:48:50;3.80;;;1.88;;
65156;SDS011;52745;49.794;18.258;2022-09-17T09:59:32;3.45;;;1.58;;
65156;SDS011;52745;49.794;18.258;2022-09-17T10:02:03;6.32;;;1.88;;
65156;SDS011;52745;49.794;18.258;2022-09-17T10:04:29;3.35;;;1.77;;
65156;SDS011;52745;49.794;18.258;2022-09-17T10:09:32;4.18;;;1.80;;
65156;SDS011;52745;49.794;18.258;2022-09-17T10:14:39;2.83;;;1.65;;
65156;SDS011;52745;49.794;18.258;2022-09-17T10:17:14;3.55;;;1.60;;
65156;SDS011;52745;49.794;18.258;2022-09-17T10:19:46;2.92;;;2.00;;
65156;SDS011;52745;49.794;18.258;2022-09-17T10:22:44;6.40;;;1.50;;
65156;SDS011;52745;49.794;18.258;2022-09-17T10:25:20;2.00;;;1.52;;
65156;SDS011;52745;49.794;18.258;2022-09-17T10:27:52;4.40;;;1.58;;
65156;SDS011;52745;49.794;18.258;2022-09-17T10:30:25;2.80;;;1.60;;
65156;SDS011;52745;49.794;18.258;2022-09-17T10:33:14;2.30;;;1.60;;
65156;SDS011;52745;49.794;18.258;2022-09-17T10:38:30;3.45;;;2.28;;
65156;SDS011;52745;49.794;18.258;2022-09-17T10:41:07;3.50;;;1.83;;
65156;SDS011;52745;49.794;18.258;2022-09-17T10:43:40;4.80;;;1.73;;
65156;SDS011;52745;49.794;18.258;2022-09-17T10:46:08;2.45;;;1.30;;
65156;SDS011;52745;49.794;18.258;2022-09-17T10:49:26;4.65;;;1.70;;
65156;SDS011;52745;49.794;18.258;2022-09-17T10:51:49;2.88;;;1.48;;
65156;SDS011;52745;49.794;18.258;2022-09-17T10:56:56;6.00;;;3.55;;
65156;SDS011;52745;49.794;18.258;2022-09-17T11:10:35;2.78;;;1.30;;
65156;SDS011;52745;49.794;18.258;2022-09-17T11:13:25;2.90;;;1.40;;
65156;SDS011;52745;49.794;18.258;2022-09-17T11:18:44;3.28;;;1.10;;
65156;SDS011;52745;49.794;18.258;2022-09-17T11:23:53;3.97;;;1.33;;
65156;SDS011;52745;49.794;18.258;2022-09-17T11:34:59;3.85;;;1.20;;
65156;SDS011;52745;49.794;18.258;2022-09-17T11:40:24;2.78;;;1.33;;
65156;SDS011;52745;49.794;18.258;2022-09-17T11:43:01;2.70;;;1.23;;
65156;SDS011;52745;49.794;18.258;2022-09-17T11:45:38;2.00;;;1.30;;
65156;SDS011;52745;49.794;18.258;2022-09-17T11:48:11;2.35;;;1.30;;
65156;SDS011;52745;49.794;18.258;2022-09-17T11:53:36;4.10;;;1.17;;
65156;SDS011;52745;49.794;18.258;2022-09-17T12:13:15;2.90;;;1.20;;
65156;SDS011;52745;49.794;18.258;2022-09-17T12:15:48;4.35;;;1.50;;
65156;SDS011;52745;49.794;18.258;2022-09-17T12:18:24;1.98;;;1.25;;
65156;SDS011;52745;49.794;18.258;2022-09-17T12:20:54;2.13;;;1.20;;
65156;SDS011;52745;49.794;18.258;2022-09-17T12:23:30;2.38;;;1.10;;
65156;SDS011;52745;49.794;18.258;2022-09-17T12:29:01;3.10;;;1.20;;
65156;SDS011;52745;49.794;18.258;2022-09-17T12:34:27;2.00;;;1.20;;
65156;SDS011;52745;49.794;18.258;2022-09-17T12:57:37;2.42;;;1.50;;
65156;SDS011;52745;49.794;18.258;2022-09-17T13:00:18;2.25;;;1.30;;
65156;SDS011;52745;49.794;18.258;2022-09-17T13:14:08;2.08;;;1.20;;
65156;SDS011;52745;49.794;18.258;2022-09-17T13:17:01;1.90;;;1.30;;
65156;SDS011;52745;49.794;18.258;2022-09-17T13:19:38;2.28;;;1.50;;
65156;SDS011;52745;49.794;18.258;2022-09-17T13:22:16;4.82;;;1.20;;
65156;SDS011;52745;49.794;18.258;2022-09-17T13:24:44;3.80;;;1.73;;
65156;SDS011;52745;49.794;18.258;2022-09-17T13:27:20;3.45;;;1.83;;
65156;SDS011;52745;49.794;18.258;2022-09-17T13:37:32;2.53;;;1.50;;
65156;SDS011;52745;49.794;18.258;2022-09-17T13:40:00;1.83;;;1.35;;
65156;SDS011;52745;49.794;18.258;2022-09-17T13:42:29;3.15;;;1.52;;
65156;SDS011;52745;49.794;18.258;2022-09-17T13:45:14;2.70;;;1.50;;
65156;SDS011;52745;49.794;18.258;2022-09-17T13:47:49;1.70;;;1.30;;
65156;SDS011;52745;49.794;18.258;2022-09-17T13:52:53;1.55;;;1.08;;
65156;SDS011;52745;49.794;18.258;2022-09-17T13:55:55;2.22;;;1.20;;
65156;SDS011;52745;49.794;18.258;2022-09-17T14:00:55;1.73;;;1.10;;
65156;SDS011;52745;49.794;18.258;2022-09-17T14:19:04;2.13;;;1.40;;
65156;SDS011;52745;49.794;18.258;2022-09-17T14:22:10;3.92;;;1.40;;
65156;SDS011;52745;49.794;18.258;2022-09-17T14:30:30;1.35;;;1.20;;
65156;SDS011;52745;49.794;18.258;2022-09-17T14:35:45;1.88;;;1.40;;
65156;SDS011;52745;49.794;18.258;2022-09-17T14:40:47;2.53;;;1.40;;
65156;SDS011;52745;49.794;18.258;2022-09-17T14:46:32;3.53;;;2.20;;
65156;SDS011;52745;49.794;18.258;2022-09-17T14:51:59;4.90;;;2.83;;
65156;SDS011;52745;49.794;18.258;2022-09-17T14:54:31;4.95;;;2.67;;
65156;SDS011;52745;49.794;18.258;2022-09-17T14:57:01;4.22;;;2.60;;
65156;SDS011;52745;49.794;18.258;2022-09-17T14:59:40;2.60;;;1.90;;
65156;SDS011;52745;49.794;18.258;2022-09-17T15:04:53;3.22;;;2.17;;
65156;SDS011;52745;49.794;18.258;2022-09-17T15:07:20;5.50;;;2.08;;
65156;SDS011;52745;49.794;18.258;2022-09-17T15:09:48;3.33;;;2.10;;
65156;SDS011;52745;49.794;18.258;2022-09-17T15:12:26;2.65;;;1.80;;
65156;SDS011;52745;49.794;18.258;2022-09-17T15:14:55;2.28;;;1.83;;
65156;SDS011;52745;49.794;18.258;2022-09-17T15:17:23;3.13;;;1.80;;
65156;SDS011;52745;49.794;18.258;2022-09-17T15:19:50;2.83;;;1.92;;
65156;SDS011;52745;49.794;18.258;2022-09-17T15:22:35;3.35;;;1.80;;
65156;SDS011;52745;49.794;18.258;2022-09-17T15:27:39;3.42;;;1.80;;
65156;SDS011;52745;49.794;18.258;2022-09-17T15:30:14;3.03;;;2.10;;
65156;SDS011;52745;49.794;18.258;2022-09-17T15:32:55;2.97;;;2.17;;
65156;SDS011;52745;49.794;18.258;2022-09-17T15:35:25;3.35;;;1.90;;
65156;SDS011;52745;49.794;18.258;2022-09-17T15:37:56;3.90;;;2.30;;
65156;SDS011;52745;49.794;18.258;2022-09-17T15:43:12;3.58;;;2.42;;
65156;SDS011;52745;49.794;18.258;2022-09-17T15:45:46;3.42;;;2.30;;
65156;SDS011;52745;49.794;18.258;2022-09-17T15:50:58;16.10;;;8.75;;
65156;SDS011;52745;49.794;18.258;2022-09-17T15:53:27;4.55;;;2.70;;
65156;SDS011;52745;49.794;18.258;2022-09-17T15:56:07;4.82;;;2.55;;
65156;SDS011;52745;49.794;18.258;2022-09-17T16:08:44;4.10;;;2.55;;
65156;SDS011;52745;49.794;18.258;2022-09-17T16:11:14;3.20;;;2.80;;
65156;SDS011;52745;49.794;18.258;2022-09-17T16:13:41;3.42;;;2.65;;
65156;SDS011;52745;49.794;18.258;2022-09-17T16:16:12;4.55;;;2.65;;
65156;SDS011;52745;49.794;18.258;2022-09-17T16:19:00;4.30;;;2.70;;
65156;SDS011;52745;49.794;18.258;2022-09-17T16:21:27;4.35;;;2.97;;
65156;SDS011;52745;49.794;18.258;2022-09-17T16:23:54;5.60;;;3.30;;
65156;SDS011;52745;49.794;18.258;2022-09-17T16:26:20;5.45;;;3.15;;
65156;SDS011;52745;49.794;18.258;2022-09-17T16:28:52;4.18;;;2.90;;
65156;SDS011;52745;49.794;18.258;2022-09-17T16:31:21;4.65;;;2.75;;
65156;SDS011;52745;49.794;18.258;2022-09-17T16:33:50;4.40;;;2.80;;
65156;SDS011;52745;49.794;18.258;2022-09-17T16:36:16;4.57;;;2.78;;
65156;SDS011;52745;49.794;18.258;2022-09-17T16:38:43;3.22;;;2.60;;
65156;SDS011;52745;49.794;18.258;2022-09-17T16:41:10;4.50;;;3.00;;
65156;SDS011;52745;49.794;18.258;2022-09-17T16:43:38;5.90;;;3.00;;
65156;SDS011;52745;49.794;18.258;2022-09-17T16:46:06;6.32;;;3.17;;
65156;SDS011;52745;49.794;18.258;2022-09-17T16:48:33;7.40;;;3.65;;
65156;SDS011;52745;49.794;18.258;2022-09-17T16:51:05;7.35;;;3.90;;
65156;SDS011;52745;49.794;18.258;2022-09-17T16:53:33;6.88;;;3.72;;
65156;SDS011;52745;49.794;18.258;2022-09-17T16:56:00;5.50;;;3.47;;
65156;SDS011;52745;49.794;18.258;2022-09-17T16:58:26;6.78;;;3.25;;
65156;SDS011;52745;49.794;18.258;2022-09-17T17:00:53;7.07;;;3.65;;
65156;SDS011;52745;49.794;18.258;2022-09-17T17:03:20;6.20;;;4.03;;
65156;SDS011;52745;49.794;18.258;2022-09-17T17:05:46;10.23;;;7.32;;
65156;SDS011;52745;49.794;18.258;2022-09-17T17:08:13;7.53;;;3.72;;
65156;SDS011;52745;49.794;18.258;2022-09-17T17:10:39;5.93;;;3.30;;
65156;SDS011;52745;49.794;18.258;2022-09-17T17:13:06;4.97;;;3.30;;
65156;SDS011;52745;49.794;18.258;2022-09-17T17:15:33;6.22;;;3.20;;
65156;SDS011;52745;49.794;18.258;2022-09-17T17:17:59;5.32;;;3.80;;
65156;SDS011;52745;49.794;18.258;2022-09-17T17:20:26;5.75;;;3.15;;
65156;SDS011;52745;49.794;18.258;2022-09-17T17:22:53;4.32;;;2.80;;
65156;SDS011;52745;49.794;18.258;2022-09-17T17:25:20;3.92;;;2.88;;
65156;SDS011;52745;49.794;18.258;2022-09-17T17:27:48;5.97;;;3.30;;
65156;SDS011;52745;49.794;18.258;2022-09-17T17:30:15;5.55;;;3.20;;
65156;SDS011;52745;49.794;18.258;2022-09-17T17:32:43;3.63;;;3.00;;
65156;SDS011;52745;49.794;18.258;2022-09-17T17:35:14;5.68;;;3.10;;
65156;SDS011;52745;49.794;18.258;2022-09-17T17:37:41;5.90;;;3.90;;
65156;SDS011;52745;49.794;18.258;2022-09-17T17:40:07;3.50;;;2.67;;
65156;SDS011;52745;49.794;18.258;2022-09-17T17:42:35;5.07;;;2.65;;
65156;SDS011;52745;49.794;18.258;2022-09-17T17:45:04;4.45;;;2.95;;
65156;SDS011;52745;49.794;18.258;2022-09-17T17:47:32;9.52;;;3.40;;
65156;SDS011;52745;49.794;18.258;2022-09-17T17:49:59;3.40;;;2.78;;
65156;SDS011;52745;49.794;18.258;2022-09-17T17:52:26;4.82;;;2.97;;
65156;SDS011;52745;49.794;18.258;2022-09-17T17:54:52;3.65;;;3.00;;
65156;SDS011;52745;49.794;18.258;2022-09-17T17:57:19;4.28;;;3.00;;
65156;SDS011;52745;49.794;18.258;2022-09-17T17:59:46;3.25;;;2.60;;
65156;SDS011;52745;49.794;18.258;2022-09-17T18:02:12;5.43;;;2.90;;
65156;SDS011;52745;49.794;18.258;2022-09-17T18:04:39;4.35;;;3.15;;
65156;SDS011;52745;49.794;18.258;2022-09-17T18:07:06;3.55;;;3.00;;
65156;SDS011;52745;49.794;18.258;2022-09-17T18:09:33;4.45;;;2.80;;
65156;SDS011;52745;49.794;18.258;2022-09-17T18:11:59;6.05;;;2.95;;
65156;SDS011;52745;49.794;18.258;2022-09-17T18:14:26;4.97;;;3.30;;
65156;SDS011;52745;49.794;18.258;2022-09-17T18:16:52;4.55;;;3.38;;
65156;SDS011;52745;49.794;18.258;2022-09-17T18:19:19;5.93;;;3.30;;
65156;SDS011;52745;49.794;18.258;2022-09-17T18:21:45;7.15;;;3.78;;
65156;SDS011;52745;49.794;18.258;2022-09-17T18:24:12;7.38;;;3.45;;
65156;SDS011;52745;49.794;18.258;2022-09-17T18:26:39;5.10;;;3.55;;
65156;SDS011;52745;49.794;18.258;2022-09-17T18:29:05;5.57;;;3.45;;
65156;SDS011;52745;49.794;18.258;2022-09-17T18:31:32;5.75;;;3.38;;
65156;SDS011;52745;49.794;18.258;2022-09-17T18:34:08;4.65;;;3.63;;
65156;SDS011;52745;49.794;18.258;2022-09-17T18:36:37;4.55;;;3.20;;
65156;SDS011;52745;49.794;18.258;2022-09-17T18:39:05;4.50;;;3.20;;
65156;SDS011;52745;49.794;18.258;2022-09-17T18:41:34;4.03;;;2.95;;
65156;SDS011;52745;49.794;18.258;2022-09-17T18:44:06;5.85;;;3.30;;
65156;SDS011;52745;49.794;18.258;2022-09-17T18:46:33;3.45;;;2.88;;
65156;SDS011;52745;49.794;18.258;2022-09-17T18:49:00;5.72;;;3.40;;
65156;SDS011;52745;49.794;18.258;2022-09-17T18:51:27;6.28;;;3.40;;